Hlavní strana
METAR-TAF:

METAR-TAF

Letiště :

Koror, Babeldaob, Palau

zeměpisná šířka: 07-22N, zeměpisná délka: 134-32E, výška: 54 m

Aktuální stav počasí

Zpráva byla vytvořena před 49 minutami, v 13:50 UTC
Severní vítr 4 kt
Teplota 24°C
Vlhkost vzduchu 94%
Tlak 1012 hPa
Viditelnost: 24.1 km
Polojasno ve výšce 1600 ft, Vertikální cumulus.
Oblačno až skoro zataženo ve výšce 12000 ft
Oblačno až skoro zataženo ve výšce 30000 ft

METAR: PTRO 241350Z 35004KT 15SM SCT016TCU BKN120 BKN300 24/23 A2987 RMK TCU E-S

Čas: 23:39 (14:39 UTC)

Předpověď počasí

Zpráva byla vytvořena před 3 hodinami a 19 minutami, v 11:20 UTC
Předpověď platná od 24 v 12 UTC do 25 v 12 UTC
vítr z různých směrů 5 kt
Viditelnost: 10 km
Skoro jasno ve výšce 1600 ft
Polojasno ve výšce 4000 ft
přeháňky v blízkosti

TAF: PTRO 241120Z 2412/2512 VRB05KT P6SM VCSH FEW016 SCT040

Stav a předpovědi počasí z více než 4 000 letišť (zprávy METAR a TAF).

Červené a žluté tečky na mapě představují dostupné meteorologické stanice.

Když kurzor umístíte na tečku, zobrazí se název stanice.

Pak kliknutím zobrazíte stav a předpověď počasí.

Chcete-li změnit mapu, kliknutím na zelené tlačítko se znaménkem +mapu přiblížíte, kliknutím na zelené tlačítko se znaménkem – mapu oddálíte a kliknutím na zelené šipky přejdete na sousední mapy.


METAR-TAF: